createdAt,value
2022-12-04T00:06:21.880Z,2.7
2022-12-04T01:05:44.792Z,2.3
2022-12-04T02:04:13.225Z,2
2022-12-04T02:10:42.577Z,2.2
2022-12-04T02:55:13.015Z,2
2022-12-04T03:02:15.833Z,1.9
2022-12-04T03:08:39.834Z,1.8
2022-12-04T03:14:43.028Z,1.9
2022-12-04T03:21:01.726Z,1.8
2022-12-04T03:26:54.418Z,1.7
2022-12-04T03:39:50.536Z,1.7
2022-12-04T03:45:56.494Z,1.7
2022-12-04T03:51:55.930Z,1.7
2022-12-04T03:58:33.105Z,1.5
2022-12-04T04:11:38.012Z,1.6
2022-12-04T04:17:49.660Z,1.5
2022-12-04T04:24:06.603Z,1.5
2022-12-04T04:30:33.397Z,1.5
2022-12-04T04:36:52.200Z,1.4
2022-12-04T04:49:34.341Z,1.6
2022-12-04T04:55:54.116Z,1.7
2022-12-04T05:01:58.634Z,1.6
2022-12-04T05:07:55.431Z,1.6
2022-12-04T05:13:53.348Z,1.4
2022-12-04T05:20:03.843Z,1.4
2022-12-04T05:32:36.516Z,1.5
2022-12-04T05:45:08.287Z,1.2
2022-12-04T05:57:30.261Z,1.3
2022-12-04T06:03:33.481Z,1.4
2022-12-04T06:09:41.810Z,1.6
2022-12-04T06:15:41.156Z,1.6
2022-12-04T06:22:00.050Z,1.5
2022-12-04T06:28:05.203Z,1.5
2022-12-04T06:34:08.496Z,1.5
2022-12-04T06:40:28.892Z,1.2
2022-12-04T06:46:29.723Z,1.3
2022-12-04T06:52:43.691Z,1.3
2022-12-04T07:05:38.865Z,1.5
2022-12-04T07:18:21.390Z,1.3
2022-12-04T07:24:25.403Z,1.3
2022-12-04T07:30:34.572Z,1.4
2022-12-04T07:42:31.643Z,1.1
2022-12-04T07:48:33.250Z,1.3
2022-12-04T07:54:52.109Z,1.5
2022-12-04T08:00:54.501Z,1.4
2022-12-04T08:06:50.976Z,1.3
2022-12-04T08:12:46.662Z,1.2
2022-12-04T08:18:40.725Z,1.3
2022-12-04T08:24:39.174Z,1.4
2022-12-04T08:30:38.879Z,1.6
2022-12-04T08:36:44.893Z,1.6
2022-12-04T08:42:52.830Z,1.5
2022-12-04T08:48:47.019Z,1.3
2022-12-04T10:43:35.470Z,2
2022-12-04T10:49:44.169Z,1.9
2022-12-04T11:02:35.182Z,2.1
2022-12-04T11:27:26.908Z,2.3
2022-12-04T11:40:02.826Z,2.3
2022-12-04T11:45:52.480Z,2.2
2022-12-04T11:52:00.401Z,2.4
2022-12-04T12:32:20.682Z,2.6
2022-12-04T12:38:34.881Z,2.6
2022-12-04T13:04:09.399Z,2.5
2022-12-04T13:10:06.040Z,2.5
2022-12-04T14:09:08.064Z,2.7
2022-12-04T14:41:29.314Z,2.5
2022-12-04T14:54:59.381Z,2.5
2022-12-04T15:00:52.778Z,2.5
2022-12-04T15:07:22.030Z,2.5
2022-12-04T15:13:21.859Z,2.5
2022-12-04T15:19:18.855Z,2.6
2022-12-04T15:25:52.539Z,2.5
2022-12-04T15:38:22.388Z,2.5
2022-12-04T15:44:19.185Z,2.6
2022-12-04T15:50:38.482Z,2.7
2022-12-04T15:57:09.883Z,2.7
2022-12-04T16:03:29.001Z,2.7
2022-12-04T16:09:33.704Z,2.6
2022-12-04T16:23:36.532Z,2.6
2022-12-04T16:30:02.404Z,2.6
2022-12-04T16:36:22.016Z,2.7
2022-12-04T16:42:16.556Z,2.8
2022-12-04T16:48:08.822Z,2.8
2022-12-04T16:54:03.166Z,2.8
2022-12-04T17:00:00.202Z,2.7
2022-12-04T17:05:50.885Z,2.5
2022-12-04T17:11:48.673Z,2.5
2022-12-04T17:17:39.023Z,2.7
2022-12-04T17:23:31.233Z,2.6
2022-12-04T17:29:25.572Z,2.6
2022-12-04T17:35:35.962Z,2.7
2022-12-04T17:41:56.288Z,2.6
2022-12-04T17:54:10.821Z,2.7
2022-12-04T18:00:19.041Z,2.7
2022-12-04T18:12:54.495Z,2.7
2022-12-04T18:44:39.884Z,2.8
2022-12-04T18:51:09.214Z,2.9
2022-12-04T18:57:33.440Z,2.9
2022-12-04T19:04:04.408Z,2.9
2022-12-04T19:10:13.400Z,2.9
2022-12-04T19:16:06.787Z,2.9
2022-12-04T19:22:28.860Z,2.9
2022-12-04T19:28:36.126Z,2.9
2022-12-04T19:40:55.159Z,2.8
2022-12-04T19:52:43.219Z,2.7
2022-12-04T20:04:46.892Z,2.8
2022-12-04T20:11:01.141Z,2.7
2022-12-04T20:17:21.598Z,2.8
2022-12-04T20:36:06.894Z,2.8
2022-12-04T20:42:07.699Z,2.7
2022-12-04T20:48:08.376Z,2.9
2022-12-04T20:54:17.363Z,2.8
2022-12-04T21:00:11.116Z,2.9
2022-12-04T21:06:05.102Z,3
2022-12-04T21:12:01.504Z,2.9
2022-12-04T21:24:15.688Z,2.9
2022-12-04T21:30:24.679Z,2.9
2022-12-04T21:43:05.762Z,2.9
2022-12-04T21:48:56.702Z,3
2022-12-04T21:54:54.183Z,2.9
2022-12-04T22:00:46.154Z,3
2022-12-04T22:06:37.482Z,3
2022-12-04T22:12:48.883Z,3
2022-12-04T22:18:40.863Z,3.1
2022-12-04T22:24:43.796Z,3.1
2022-12-04T22:30:39.129Z,3.1
2022-12-04T22:36:39.250Z,3.1
2022-12-04T22:42:39.949Z,3.1
2022-12-04T22:48:35.796Z,3
2022-12-04T22:54:30.761Z,3
2022-12-04T23:00:35.136Z,3
2022-12-04T23:06:34.652Z,3
2022-12-04T23:12:45.559Z,3
2022-12-04T23:18:37.320Z,3.1
2022-12-04T23:24:29.053Z,3.1
2022-12-04T23:30:29.521Z,3
2022-12-04T23:36:42.502Z,2.9
2022-12-04T23:42:53.654Z,2.9
2022-12-04T23:48:54.296Z,2.8
2022-12-04T23:55:08.922Z,3
